82cook.com을 즐겨찾기에 추가
login form

자유게시판

드러낼 수 없는 고민을 풀어보는 속풀이방

Banner

북한 핵 미사일 공격시.. 미국 MD로 막아낼수 없어

걱정하는과학자 조회수 : 528
작성일 : 2016-07-22 22:18:36
http://www.vop.co.kr/A00001049757.html

MD로 미 본토 방어도 불가
 

미국 본토 방어의 핵심인 지상 배치 미사일 방어체계(GMD, Ground-Based Midcourse Defense)로는 북한 핵미사일 공격을 막아낼 수 없다면서 GMD 포대 확장 설치를 중단하라고 촉구했다.

로스앤젤레스타임스(LAT) 등 미 언론에 따르면 미국의 비영리 단체 ‘걱정하는 과학자 모임’(UCS)은 현재의 GMD로 미 주요 도시들에 대한 북한 핵미사일 공격을 방어할 수 없어 버락 오바마 행정부가 포대 확대배치 계획을 그만둬야 한다는 내용의 보고서를 15일에 발표했다.

요격 미사일 분야의 전문가인 세 명의 물리학자가 참여한 60쪽 분량의 이 보고서는 GMD가 기술적으로 여러 문제를 드러냈으며, 이 문제가 해결되기 전에 배치를 확대하려는 계획을 중지해야 한다고 주장했다.

한편 지난 1969년 매사추세츠공대(MIT) 소속 교수들과 학생들을 주축으로 결성된 CSU는 미국이 개발한 과학과 기술이 군사적으로 잘못 사용되는 것을 감시하는 활동을 하고 있다.

IP : 1.243.xxx.166
0 개의 댓글이 있습니다.
    ☞ 로그인 후 의견을 남기실 수 있습니다
    댓글입력 작성자 :

    N

    번호 제목 작성자 날짜 조회
    1809196 모자무싸 강말금 배우 3 ... 06:26:32 430
    1809195 요즘은 직구도 그닥 차이가 없나봐요;; ㅣㅣ 06:21:01 204
    1809194 펌..맞벌이가 그렇게 억울하면 1 침나. 06:19:15 394
    1809193 월세계약연장 한강 05:55:05 161
    1809192 일산과 분당 집값 차이 4 ... 05:50:03 1,060
    1809191 저는 우리나라에서 대전이 가장 살기 좋은 거 같아요 15 이무 02:21:55 2,457
    1809190 맞벌이는 1.그레이드. 2.액수 3.지속가능성이 맞벌입니다. 3 ..... 02:01:35 1,011
    1809189 지금 깨어있는 분들 4 .. 01:59:32 1,246
    1809188 김용남, 유의동이 토론에서 조국에게 물어야 할 결정적 질문 4 .. 01:51:11 699
    1809187 인생 허무 4 눈물 01:45:20 1,728
    1809186 저한테 고백한사람들과 제남편까지 사주 넣고 궁합 물어보니 6 ... 01:18:41 2,314
    1809185 보석이 너무 좋아요 3 보석 01:09:57 1,330
    1809184 일류대출신에 부장까지 달고 예순된사람이 미국가서 15만불이상 벌.. 5 이민 01:00:30 2,480
    1809183 아이 머리 유전이면 대학 못나온 집이랑 안 엮이는게 낫죠? 11 ,,, 00:47:13 2,004
    1809182 황교안 응급실행. 단일화 하겠네요. 1 디톡스? 00:36:44 2,686
    1809181 가난한 사람을 많이 보는 환경이 운에 안좋을까요? 8 ..... 00:32:45 2,392
    1809180 맞벌이일때 남자가 가사 많이 돕는다 10 익명 00:30:30 1,008
    1809179 청춘기록 재밌네요 1 .. 00:23:14 1,133
    1809178 아파크 어디에 공급해야할까요 7 ㅗㅎㅎㄹ 00:21:48 655
    1809177 은밀한검사- 신혜선은 왜 미술 모델을 하는건가요? 5 dld 00:14:34 2,323
    1809176 냉정히요 아이유 연기 잘하는편인가요? 44 ㅇㄹㅎㅇㄹㅇ.. 2026/05/09 3,196
    1809175 "계엄도 하나님의 뜻"…'개신교논리' 장동혁 10 ㅇㅇ 2026/05/09 914
    1809174 장기요양등급 신청할 때 의사 소견서는 어디에서 받는 상관없을까요.. 10 ... 2026/05/09 673
    1809173 맞벌이일때 여자가 손해 맞아요. 27 직장맘 2026/05/09 2,384
    1809172 제가 파인다이닝에서 알바를 해봤는데요 9 wpfl 2026/05/09 5,508